Time;durP1;ratioP1;P1;durP2;ratioP2;P2;SDS_P1;SDS_P2;PMS_P1;PMS_P2;Temp;Humidity;BMP_temperature;BMP_pressure;BME280_temperature;BME280_humidity;BME280_pressure;Samples;Min_cycle;Max_cycle;Signal;HPM_P1;HPM_P2
2021/04/05 00:00:07;;;;;;;2.85;2.56;;;;;;;19.44;41.77;100275.44;;;;-64
2021/04/05 00:03:07;;;;;;;2.93;2.59;;;;;;;19.43;41.81;100275.78;;;;-63
2021/04/05 00:06:07;;;;;;;2.93;2.64;;;;;;;19.42;41.78;100276.48;;;;-64
2021/04/05 00:09:07;;;;;;;3.10;2.63;;;;;;;19.40;41.80;100272.58;;;;-63
2021/04/05 00:12:07;;;;;;;2.92;2.66;;;;;;;19.38;41.79;100264.39;;;;-63
2021/04/05 00:15:07;;;;;;;3.41;2.51;;;;;;;19.37;41.78;100264.70;;;;-63
2021/04/05 00:18:07;;;;;;;3.91;2.75;;;;;;;19.35;41.85;100257.05;;;;-63
2021/04/05 00:21:07;;;;;;;3.23;2.82;;;;;;;19.34;41.80;100250.07;;;;-62
2021/04/05 00:24:07;;;;;;;3.34;2.69;;;;;;;19.33;41.86;100248.92;;;;-64
2021/04/05 00:27:07;;;;;;;3.38;2.82;;;;;;;19.32;41.84;100239.50;;;;-62
2021/04/05 00:30:07;;;;;;;2.93;2.65;;;;;;;19.31;41.84;100226.58;;;;-63
2021/04/05 00:33:07;;;;;;;3.41;2.85;;;;;;;19.28;41.84;100225.27;;;;-64
2021/04/05 00:36:07;;;;;;;3.03;2.75;;;;;;;19.27;41.85;100220.54;;;;-64
2021/04/05 00:39:07;;;;;;;3.05;2.74;;;;;;;19.26;41.84;100215.83;;;;-64
2021/04/05 00:42:07;;;;;;;3.13;2.83;;;;;;;19.26;41.85;100209.34;;;;-60
2021/04/05 00:45:07;;;;;;;3.10;2.79;;;;;;;19.24;41.87;100217.55;;;;-59
2021/04/05 00:48:07;;;;;;;3.05;2.77;;;;;;;19.24;41.88;100222.42;;;;-59
2021/04/05 00:51:07;;;;;;;3.24;2.82;;;;;;;19.22;41.89;100212.49;;;;-58
2021/04/05 00:54:07;;;;;;;3.48;2.94;;;;;;;19.20;41.89;100208.17;;;;-58
2021/04/05 00:57:07;;;;;;;3.11;2.81;;;;;;;19.20;41.87;100203.06;;;;-60
2021/04/05 01:00:07;;;;;;;3.62;3.20;;;;;;;19.18;41.89;100196.15;;;;-58
2021/04/05 01:03:07;;;;;;;3.25;2.71;;;;;;;19.18;41.90;100198.10;;;;-59
2021/04/05 01:06:07;;;;;;;3.37;3.03;;;;;;;19.17;41.90;100199.06;;;;-59
2021/04/05 01:09:08;;;;;;;2.91;2.61;;;;;;;19.15;41.88;100190.44;;;;-55
2021/04/05 01:12:07;;;;;;;3.73;2.89;;;;;;;19.14;41.88;100177.20;;;;-54
2021/04/05 01:15:07;;;;;;;3.22;2.92;;;;;;;19.13;41.91;100164.69;;;;-54
2021/04/05 01:18:07;;;;;;;3.18;2.88;;;;;;;19.12;41.87;100165.83;;;;-54
2021/04/05 01:21:07;;;;;;;3.25;2.93;;;;;;;19.11;41.88;100157.23;;;;-55
2021/04/05 01:24:07;;;;;;;3.11;2.73;;;;;;;19.11;41.85;100146.19;;;;-54
2021/04/05 01:27:07;;;;;;;3.39;2.89;;;;;;;19.10;41.87;100138.61;;;;-54
2021/04/05 01:30:07;;;;;;;3.25;2.84;;;;;;;19.09;41.87;100130.88;;;;-60
2021/04/05 01:33:07;;;;;;;3.44;2.86;;;;;;;19.08;41.84;100119.77;;;;-59
2021/04/05 01:36:07;;;;;;;2.99;2.69;;;;;;;19.06;41.82;100113.50;;;;-62
2021/04/05 01:39:07;;;;;;;3.75;3.03;;;;;;;19.07;41.84;100107.81;;;;-64
2021/04/05 01:42:07;;;;;;;3.71;3.20;;;;;;;19.05;41.91;100102.80;;;;-63
2021/04/05 01:45:07;;;;;;;3.71;3.01;;;;;;;19.05;41.85;100102.36;;;;-58
2021/04/05 01:48:07;;;;;;;3.17;2.87;;;;;;;19.04;41.90;100094.41;;;;-59
2021/04/05 01:51:07;;;;;;;3.16;2.86;;;;;;;19.02;41.88;100087.42;;;;-59
2021/04/05 01:54:07;;;;;;;3.44;2.91;;;;;;;19.02;41.86;100085.72;;;;-59
2021/04/05 01:57:07;;;;;;;3.13;2.83;;;;;;;19.01;41.88;100077.75;;;;-59
2021/04/05 02:00:07;;;;;;;3.58;2.92;;;;;;;18.99;41.86;100081.09;;;;-59
2021/04/05 02:03:07;;;;;;;3.31;2.95;;;;;;;18.98;41.93;100079.13;;;;-58
2021/04/05 02:06:07;;;;;;;3.55;2.81;;;;;;;18.97;41.87;100081.09;;;;-63
2021/04/05 02:09:07;;;;;;;3.23;2.93;;;;;;;18.96;41.88;100074.81;;;;-59
2021/04/05 02:12:07;;;;;;;3.55;3.00;;;;;;;18.95;41.90;100067.12;;;;-59
2021/04/05 02:15:07;;;;;;;2.98;2.70;;;;;;;18.94;41.90;100054.67;;;;-59
2021/04/05 02:18:07;;;;;;;3.09;2.79;;;;;;;18.94;41.92;100052.41;;;;-60
2021/04/05 02:21:07;;;;;;;3.26;2.96;;;;;;;18.93;41.91;100049.66;;;;-54
2021/04/05 02:24:07;;;;;;;3.07;2.77;;;;;;;18.92;41.89;100044.27;;;;-54
2021/04/05 02:27:07;;;;;;;3.29;2.85;;;;;;;18.92;41.89;100042.25;;;;-54
2021/04/05 02:30:07;;;;;;;3.14;2.71;;;;;;;18.90;41.92;100043.38;;;;-60
2021/04/05 02:33:07;;;;;;;3.06;2.72;;;;;;;18.90;41.88;100030.23;;;;-59
2021/04/05 02:36:07;;;;;;;3.17;2.87;;;;;;;18.88;41.85;100018.39;;;;-63
2021/04/05 02:39:07;;;;;;;3.84;2.92;;;;;;;18.88;41.93;100003.92;;;;-62
2021/04/05 02:42:07;;;;;;;2.93;2.67;;;;;;;18.87;41.95;100000.92;;;;-62
2021/04/05 02:45:07;;;;;;;3.38;2.75;;;;;;;18.87;41.92;99995.90;;;;-59
2021/04/05 02:48:07;;;;;;;3.25;2.70;;;;;;;18.86;41.93;99999.20;;;;-59
2021/04/05 02:51:07;;;;;;;3.02;2.70;;;;;;;18.85;41.94;99997.36;;;;-64
2021/04/05 02:54:07;;;;;;;3.03;2.70;;;;;;;18.84;41.89;99996.61;;;;-63
2021/04/05 02:57:07;;;;;;;3.40;2.87;;;;;;;18.83;41.92;99988.01;;;;-54
2021/04/05 03:00:07;;;;;;;3.09;2.75;;;;;;;18.82;41.92;99976.49;;;;-54
2021/04/05 03:03:07;;;;;;;2.89;2.67;;;;;;;18.82;41.91;99965.27;;;;-55
2021/04/05 03:06:07;;;;;;;3.13;2.82;;;;;;;18.82;41.92;99967.22;;;;-55
2021/04/05 03:09:07;;;;;;;2.99;2.71;;;;;;;18.81;41.93;99960.33;;;;-58
2021/04/05 03:12:07;;;;;;;3.02;2.71;;;;;;;18.79;41.94;99954.80;;;;-59
2021/04/05 03:15:07;;;;;;;2.94;2.68;;;;;;;18.79;41.98;99955.86;;;;-59
2021/04/05 03:18:07;;;;;;;3.05;2.68;;;;;;;18.78;41.94;99950.89;;;;-64
2021/04/05 03:21:07;;;;;;;3.21;2.81;;;;;;;18.76;41.92;99948.61;;;;-63
2021/04/05 03:24:07;;;;;;;3.11;2.74;;;;;;;18.77;41.96;99950.95;;;;-60
2021/04/05 03:27:07;;;;;;;2.86;2.59;;;;;;;18.75;41.90;99951.03;;;;-60
2021/04/05 03:30:07;;;;;;;2.81;2.52;;;;;;;18.75;41.92;99944.62;;;;-60
2021/04/05 03:33:07;;;;;;;2.90;2.60;;;;;;;18.74;41.95;99937.41;;;;-60
2021/04/05 03:36:07;;;;;;;2.69;2.49;;;;;;;18.74;41.95;99932.05;;;;-59
2021/04/05 03:39:07;;;;;;;2.96;2.69;;;;;;;18.73;41.98;99925.47;;;;-59
2021/04/05 03:42:07;;;;;;;2.89;2.56;;;;;;;18.73;41.92;99919.30;;;;-58
2021/04/05 03:45:07;;;;;;;2.91;2.62;;;;;;;18.71;41.91;99912.71;;;;-54
2021/04/05 03:48:07;;;;;;;2.57;2.37;;;;;;;18.72;41.94;99903.86;;;;-54
2021/04/05 03:51:07;;;;;;;2.99;2.69;;;;;;;18.71;41.93;99913.78;;;;-55
2021/04/05 03:54:07;;;;;;;2.62;2.42;;;;;;;18.70;41.97;99913.70;;;;-59
2021/04/05 03:57:07;;;;;;;3.01;2.63;;;;;;;18.69;41.92;99908.81;;;;-59
2021/04/05 04:00:07;;;;;;;2.86;2.56;;;;;;;18.69;41.98;99895.84;;;;-58
2021/04/05 04:03:07;;;;;;;2.89;2.65;;;;;;;18.67;41.95;99885.03;;;;-59
2021/04/05 04:06:07;;;;;;;2.91;2.63;;;;;;;18.66;41.94;99882.13;;;;-59
2021/04/05 04:09:07;;;;;;;3.19;2.58;;;;;;;18.67;41.98;99880.73;;;;-59
2021/04/05 04:12:07;;;;;;;2.85;2.61;;;;;;;18.65;41.96;99884.06;;;;-59
2021/04/05 04:15:07;;;;;;;3.03;2.73;;;;;;;18.65;41.95;99882.19;;;;-59
2021/04/05 04:18:07;;;;;;;3.06;2.61;;;;;;;18.64;41.99;99880.26;;;;-59
2021/04/05 04:21:07;;;;;;;2.68;2.48;;;;;;;18.63;41.97;99871.08;;;;-59
2021/04/05 04:24:07;;;;;;;2.76;2.52;;;;;;;18.63;41.97;99869.45;;;;-59
2021/04/05 04:27:07;;;;;;;2.70;2.50;;;;;;;18.62;41.97;99856.23;;;;-55
2021/04/05 04:30:07;;;;;;;2.70;2.45;;;;;;;18.61;41.95;99845.83;;;;-55
2021/04/05 04:33:07;;;;;;;2.89;2.67;;;;;;;18.61;41.96;99835.94;;;;-59
2021/04/05 04:36:07;;;;;;;2.74;2.54;;;;;;;18.61;42.02;99827.98;;;;-59
2021/04/05 04:39:07;;;;;;;2.54;2.34;;;;;;;18.60;42.02;99819.23;;;;-62
2021/04/05 04:42:07;;;;;;;2.73;2.49;;;;;;;18.60;42.00;99805.44;;;;-63
2021/04/05 04:45:07;;;;;;;2.69;2.49;;;;;;;18.60;42.03;99808.04;;;;-54
2021/04/05 04:48:07;;;;;;;2.75;2.43;;;;;;;18.58;42.06;99800.56;;;;-53
2021/04/05 04:51:07;;;;;;;2.70;2.33;;;;;;;18.58;42.01;99795.78;;;;-58
2021/04/05 04:54:07;;;;;;;2.42;2.22;;;;;;;18.57;42.05;99796.03;;;;-60
2021/04/05 04:57:07;;;;;;;3.03;2.63;;;;;;;18.56;42.04;99790.66;;;;-60
2021/04/05 05:00:07;;;;;;;2.48;2.28;;;;;;;18.56;42.04;99790.17;;;;-60
2021/04/05 05:03:07;;;;;;;2.94;2.64;;;;;;;18.56;42.07;99782.97;;;;-60
2021/04/05 05:06:07;;;;;;;2.73;2.35;;;;;;;18.56;42.09;99789.94;;;;-60
2021/04/05 05:09:07;;;;;;;2.59;2.38;;;;;;;18.55;42.07;99782.56;;;;-60
2021/04/05 05:12:07;;;;;;;5.75;4.03;;;;;;;18.37;40.82;99787.68;;;;-59
2021/04/05 05:15:07;;;;;;;8.17;3.97;;;;;;;18.22;40.81;99783.11;;;;-54
2021/04/05 05:18:07;;;;;;;8.05;4.50;;;;;;;18.21;41.08;99776.06;;;;-53
2021/04/05 05:21:07;;;;;;;8.63;4.23;;;;;;;18.27;41.23;99770.63;;;;-53
2021/04/05 05:24:07;;;;;;;8.17;3.71;;;;;;;18.32;41.36;99766.58;;;;-53
2021/04/05 05:27:07;;;;;;;4.59;3.30;;;;;;;18.35;41.35;99767.15;;;;-53
2021/04/05 05:30:07;;;;;;;4.66;3.16;;;;;;;18.39;41.57;99759.05;;;;-52
2021/04/05 05:33:08;;;;;;;5.63;3.42;;;;;;;18.43;41.20;99757.98;;;;-53
2021/04/05 05:36:07;;;;;;;11.91;3.41;;;;;;;18.47;41.50;99763.75;;;;-52
2021/04/05 05:39:07;;;;;;;4.73;2.83;;;;;;;18.52;41.61;99769.17;;;;-53
2021/04/05 05:42:07;;;;;;;4.08;2.80;;;;;;;18.56;41.63;99760.25;;;;-53
2021/04/05 05:45:07;;;;;;;4.97;2.77;;;;;;;18.60;41.61;99745.72;;;;-52
2021/04/05 05:48:07;;;;;;;5.09;2.83;;;;;;;18.65;41.68;99754.54;;;;-52
2021/04/05 05:51:07;;;;;;;4.37;2.79;;;;;;;18.69;41.70;99762.08;;;;-60
2021/04/05 05:54:07;;;;;;;5.24;2.83;;;;;;;18.74;41.73;99767.61;;;;-60
2021/04/05 05:57:07;;;;;;;4.29;2.77;;;;;;;18.77;41.79;99773.67;;;;-60
2021/04/05 06:00:07;;;;;;;4.99;2.69;;;;;;;18.81;41.89;99768.17;;;;-59
2021/04/05 06:03:07;;;;;;;3.85;2.64;;;;;;;18.85;41.87;99767.93;;;;-60
2021/04/05 06:06:07;;;;;;;4.52;2.75;;;;;;;18.87;41.89;99756.48;;;;-54
2021/04/05 06:09:07;;;;;;;4.26;2.67;;;;;;;18.91;41.94;99752.34;;;;-53
2021/04/05 06:12:07;;;;;;;3.65;2.64;;;;;;;18.92;41.92;99753.20;;;;-54
2021/04/05 06:15:07;;;;;;;4.09;2.54;;;;;;;18.95;41.93;99755.34;;;;-52
2021/04/05 06:18:07;;;;;;;4.87;2.71;;;;;;;18.95;41.96;99761.09;;;;-53
2021/04/05 06:21:07;;;;;;;3.11;2.57;;;;;;;18.98;41.95;99763.67;;;;-52
2021/04/05 06:24:07;;;;;;;3.55;2.58;;;;;;;18.99;42.01;99765.06;;;;-53
2021/04/05 06:27:07;;;;;;;3.24;2.50;;;;;;;19.00;41.96;99752.70;;;;-52
2021/04/05 06:30:07;;;;;;;3.25;2.46;;;;;;;19.02;41.98;99753.28;;;;-52
2021/04/05 06:33:07;;;;;;;3.45;2.58;;;;;;;19.01;42.00;99757.09;;;;-53
2021/04/05 06:36:07;;;;;;;3.13;2.43;;;;;;;19.03;41.93;99755.96;;;;-52
2021/04/05 06:39:07;;;;;;;3.29;2.52;;;;;;;19.03;41.94;99752.55;;;;-53
2021/04/05 06:42:07;;;;;;;2.92;2.36;;;;;;;19.03;41.96;99757.91;;;;-53
2021/04/05 06:45:07;;;;;;;2.93;2.33;;;;;;;19.03;41.92;99760.83;;;;-52
2021/04/05 06:49:07;;;;;;;3.17;2.45;;;;;;;19.03;41.91;99753.84;;;;-54
2021/04/05 06:52:07;;;;;;;2.55;2.21;;;;;;;19.03;41.87;99744.42;;;;-54
2021/04/05 06:55:07;;;;;;;2.73;2.35;;;;;;;19.04;41.86;99730.12;;;;-55
2021/04/05 06:58:07;;;;;;;2.85;2.26;;;;;;;19.03;41.89;99728.19;;;;-54
2021/04/05 07:01:07;;;;;;;2.62;2.33;;;;;;;19.04;41.86;99727.85;;;;-54
2021/04/05 07:04:08;;;;;;;2.61;2.38;;;;;;;19.03;41.84;99724.28;;;;-54
2021/04/05 07:07:07;;;;;;;2.60;2.40;;;;;;;19.02;41.85;99723.46;;;;-55
2021/04/05 07:10:07;;;;;;;2.80;2.37;;;;;;;19.03;41.83;99719.26;;;;-55
2021/04/05 07:13:07;;;;;;;2.45;2.12;;;;;;;19.03;41.84;99716.23;;;;-55
2021/04/05 07:16:07;;;;;;;2.27;2.04;;;;;;;19.02;41.83;99722.41;;;;-54
2021/04/05 07:19:07;;;;;;;2.91;2.50;;;;;;;19.02;41.81;99718.11;;;;-54
2021/04/05 07:22:07;;;;;;;2.81;2.24;;;;;;;19.02;41.84;99717.38;;;;-54
2021/04/05 07:25:07;;;;;;;3.19;2.31;;;;;;;19.02;41.86;99706.99;;;;-55
2021/04/05 07:28:07;;;;;;;2.91;2.37;;;;;;;19.00;41.82;99700.17;;;;-53
2021/04/05 07:31:07;;;;;;;3.21;2.25;;;;;;;19.01;41.82;99702.11;;;;-60
2021/04/05 07:34:07;;;;;;;2.29;2.09;;;;;;;19.00;41.84;99699.84;;;;-53
2021/04/05 07:37:07;;;;;;;2.62;2.26;;;;;;;18.99;41.85;99688.57;;;;-53
2021/04/05 07:40:09;;;;;;;2.45;2.25;;;;;;;18.99;41.83;99694.43;;;;-54
2021/04/05 07:43:07;;;;;;;3.21;2.25;;;;;;;18.97;41.93;99694.50;;;;-53
2021/04/05 07:46:07;;;;;;;2.31;2.11;;;;;;;18.97;41.89;99701.41;;;;-54
2021/04/05 07:49:07;;;;;;;2.42;2.20;;;;;;;18.97;41.90;99691.91;;;;-54
2021/04/05 07:52:07;;;;;;;2.45;2.21;;;;;;;18.96;41.92;99692.70;;;;-53
2021/04/05 07:55:07;;;;;;;2.34;2.14;;;;;;;18.96;41.88;99693.20;;;;-52
2021/04/05 07:58:07;;;;;;;3.34;2.14;;;;;;;18.95;41.95;99696.78;;;;-52
2021/04/05 08:01:07;;;;;;;2.47;2.18;;;;;;;18.94;41.93;99692.72;;;;-52
2021/04/05 08:04:07;;;;;;;2.52;2.27;;;;;;;18.93;41.94;99686.97;;;;-53
2021/04/05 08:07:07;;;;;;;2.44;2.13;;;;;;;18.93;41.96;99688.20;;;;-53
2021/04/05 08:10:07;;;;;;;3.09;2.30;;;;;;;18.93;41.93;99697.70;;;;-53
2021/04/05 08:13:07;;;;;;;2.58;2.05;;;;;;;18.93;41.95;99701.59;;;;-53
2021/04/05 08:16:07;;;;;;;2.45;2.20;;;;;;;18.92;41.95;99697.69;;;;-60
2021/04/05 08:19:07;;;;;;;2.39;2.19;;;;;;;18.92;41.94;99696.87;;;;-52
2021/04/05 08:22:07;;;;;;;2.63;2.35;;;;;;;18.91;41.99;99696.80;;;;-52
2021/04/05 08:25:07;;;;;;;5.05;2.31;;;;;;;18.91;42.25;99687.47;;;;-48
2021/04/05 08:28:07;;;;;;;5.03;2.35;;;;;;;18.94;42.51;99686.55;;;;-51
2021/04/05 08:31:07;;;;;;;3.11;2.27;;;;;;;18.97;42.60;99680.22;;;;-51
2021/04/05 08:34:07;;;;;;;4.41;2.47;;;;;;;19.02;42.58;99675.55;;;;-52
2021/04/05 08:37:07;;;;;;;2.83;2.31;;;;;;;19.06;42.85;99674.66;;;;-54
2021/04/05 08:40:07;;;;;;;4.73;2.39;;;;;;;19.11;42.86;99672.36;;;;-53
2021/04/05 08:43:07;;;;;;;4.25;2.41;;;;;;;19.17;42.94;99674.19;;;;-57
2021/04/05 08:46:07;;;;;;;2.46;2.22;;;;;;;19.21;42.89;99662.47;;;;-57
2021/04/05 08:49:07;;;;;;;2.91;2.23;;;;;;;19.26;43.06;99655.64;;;;-58
2021/04/05 08:52:07;;;;;;;5.03;2.65;;;;;;;19.32;42.67;99655.01;;;;-63
2021/04/05 08:55:07;;;;;;;3.96;2.77;;;;;;;19.35;42.44;99639.17;;;;-54
2021/04/05 08:58:07;;;;;;;3.75;2.91;;;;;;;19.38;42.13;99632.57;;;;-55
2021/04/05 09:01:07;;;;;;;6.53;3.00;;;;;;;19.42;42.27;99636.26;;;;-56
2021/04/05 09:04:07;;;;;;;4.57;2.75;;;;;;;19.47;42.28;99621.05;;;;-65
2021/04/05 09:07:07;;;;;;;3.62;2.64;;;;;;;19.53;42.45;99629.70;;;;-60
2021/04/05 09:10:07;;;;;;;3.61;2.78;;;;;;;19.57;42.46;99634.94;;;;-65
2021/04/05 09:13:09;;;;;;;7.37;2.79;;;;;;;19.61;42.50;99630.70;;;;-57
2021/04/05 09:16:07;;;;;;;3.73;2.75;;;;;;;19.68;42.60;99633.23;;;;-52
2021/04/05 09:19:07;;;;;;;3.57;2.57;;;;;;;19.71;42.17;99622.84;;;;-53
2021/04/05 09:24:07;;;;;;;4.63;2.77;;;;;;;19.76;41.55;99615.66;;;;-58
2021/04/05 09:27:07;;;;;;;4.09;2.74;;;;;;;19.79;41.81;99616.44;;;;-52
2021/04/05 09:30:07;;;;;;;3.57;2.84;;;;;;;19.83;41.89;99604.53;;;;-62
2021/04/05 09:33:07;;;;;;;4.38;2.81;;;;;;;19.87;42.17;99611.48;;;;-56
2021/04/05 09:38:07;;;;;;;5.43;2.95;;;;;;;19.92;41.98;99607.05;;;;-57
2021/04/05 09:41:07;;;;;;;4.91;2.95;;;;;;;19.94;41.71;99610.38;;;;-56
2021/04/05 09:44:07;;;;;;;4.71;3.11;;;;;;;19.98;42.13;99615.92;;;;-50
2021/04/05 09:47:07;;;;;;;3.27;2.80;;;;;;;20.01;41.48;99609.49;;;;-54
2021/04/05 09:50:07;;;;;;;5.00;2.98;;;;;;;20.03;41.53;99601.25;;;;-54
2021/04/05 09:53:07;;;;;;;3.89;3.12;;;;;;;20.06;41.40;99603.81;;;;-53
2021/04/05 09:56:07;;;;;;;3.97;3.14;;;;;;;20.09;41.94;99612.25;;;;-62
2021/04/05 09:59:07;;;;;;;5.20;3.40;;;;;;;20.13;41.76;99615.64;;;;-55
2021/04/05 10:02:07;;;;;;;4.78;3.51;;;;;;;20.16;41.92;99623.41;;;;-50
2021/04/05 10:05:07;;;;;;;5.85;3.00;;;;;;;20.20;41.83;99623.38;;;;-59
2021/04/05 10:08:07;;;;;;;5.44;3.19;;;;;;;20.23;41.92;99623.17;;;;-54
2021/04/05 10:11:07;;;;;;;5.68;2.97;;;;;;;20.26;41.96;99619.02;;;;-60
2021/04/05 10:14:07;;;;;;;3.67;2.79;;;;;;;20.27;41.92;99619.30;;;;-60
2021/04/05 10:17:07;;;;;;;3.62;2.87;;;;;;;20.31;42.09;99618.38;;;;-55
2021/04/05 10:20:07;;;;;;;4.16;2.90;;;;;;;20.33;42.26;99618.77;;;;-53
2021/04/05 10:23:07;;;;;;;3.25;2.95;;;;;;;20.35;42.30;99609.88;;;;-59
2021/04/05 10:26:07;;;;;;;2.89;2.59;;;;;;;20.35;42.18;99608.96;;;;-53
2021/04/05 10:29:07;;;;;;;3.89;2.77;;;;;;;20.38;42.16;99603.17;;;;-53
2021/04/05 10:32:08;;;;;;;3.38;2.77;;;;;;;20.41;42.20;99598.09;;;;-55
2021/04/05 10:35:07;;;;;;;3.42;2.87;;;;;;;20.44;42.21;99589.52;;;;-55
2021/04/05 10:38:07;;;;;;;4.56;2.87;;;;;;;20.44;42.03;99586.16;;;;-56
2021/04/05 10:41:07;;;;;;;3.81;2.50;;;;;;;20.43;41.76;99572.68;;;;-56
2021/04/05 10:44:07;;;;;;;3.69;2.73;;;;;;;20.42;41.86;99569.84;;;;-55
2021/04/05 10:47:07;;;;;;;3.22;2.58;;;;;;;20.41;41.65;99560.81;;;;-57
2021/04/05 10:50:08;;;;;;;2.96;2.61;;;;;;;20.42;41.61;99554.77;;;;-56
2021/04/05 10:53:07;;;;;;;6.07;2.64;;;;;;;20.42;41.73;99558.77;;;;-57
2021/04/05 10:56:07;;;;;;;2.98;2.58;;;;;;;20.42;41.67;99552.19;;;;-55
2021/04/05 10:59:07;;;;;;;2.67;2.38;;;;;;;20.43;41.72;99546.22;;;;-55
2021/04/05 11:02:07;;;;;;;3.81;2.60;;;;;;;20.42;41.58;99545.52;;;;-55
2021/04/05 11:05:07;;;;;;;2.99;2.43;;;;;;;20.44;41.71;99541.49;;;;-55
2021/04/05 11:08:07;;;;;;;3.45;2.52;;;;;;;20.44;41.60;99535.22;;;;-55
2021/04/05 11:11:07;;;;;;;2.71;2.49;;;;;;;20.46;41.64;99532.27;;;;-55
2021/04/05 11:14:07;;;;;;;3.79;2.60;;;;;;;20.45;41.55;99530.48;;;;-51
2021/04/05 11:17:07;;;;;;;3.09;2.79;;;;;;;20.47;41.58;99529.17;;;;-51
2021/04/05 11:20:07;;;;;;;2.67;2.40;;;;;;;20.47;41.64;99530.41;;;;-51
2021/04/05 11:23:07;;;;;;;2.88;2.61;;;;;;;20.48;41.63;99535.76;;;;-52
2021/04/05 11:26:07;;;;;;;2.59;2.39;;;;;;;20.49;41.56;99531.25;;;;-56
2021/04/05 11:29:07;;;;;;;3.19;2.66;;;;;;;20.51;41.61;99530.09;;;;-55
2021/04/05 11:32:07;;;;;;;2.63;2.34;;;;;;;20.52;41.60;99525.84;;;;-55
2021/04/05 11:35:08;;;;;;;2.73;2.40;;;;;;;20.54;41.58;99516.06;;;;-55
2021/04/05 11:38:07;;;;;;;2.79;2.47;;;;;;;20.54;41.56;99514.99;;;;-55
2021/04/05 11:41:07;;;;;;;2.57;2.33;;;;;;;20.55;41.56;99506.44;;;;-55
2021/04/05 11:44:07;;;;;;;2.69;2.47;;;;;;;20.57;41.57;99505.77;;;;-56
2021/04/05 11:47:07;;;;;;;2.87;2.31;;;;;;;20.59;41.49;99508.63;;;;-55
2021/04/05 11:50:07;;;;;;;2.65;2.40;;;;;;;20.59;41.46;99504.70;;;;-56
2021/04/05 11:53:07;;;;;;;2.83;2.40;;;;;;;20.61;41.53;99515.19;;;;-53
2021/04/05 11:56:07;;;;;;;2.71;2.48;;;;;;;20.63;41.46;99513.92;;;;-53
2021/04/05 11:59:08;;;;;;;2.62;2.30;;;;;;;20.64;41.56;99512.05;;;;-53
2021/04/05 12:02:15;;;;;;;2.37;2.17;;;;;;;20.65;41.50;99513.66;;;;-53
2021/04/05 12:05:07;;;;;;;2.69;2.37;;;;;;;20.65;41.54;99513.67;;;;-53
2021/04/05 12:08:07;;;;;;;2.67;2.47;;;;;;;20.66;41.51;99517.55;;;;-53
2021/04/05 12:11:07;;;;;;;2.92;2.50;;;;;;;20.66;41.52;99508.26;;;;-52
2021/04/05 12:14:07;;;;;;;2.52;2.32;;;;;;;20.67;41.54;99508.34;;;;-51
2021/04/05 12:17:07;;;;;;;2.64;2.39;;;;;;;20.67;41.50;99502.89;;;;-51
2021/04/05 12:20:07;;;;;;;5.01;2.90;;;;;;;20.67;41.13;99501.50;;;;-55
2021/04/05 12:23:07;;;;;;;5.65;3.35;;;;;;;20.67;41.01;99498.09;;;;-54
2021/04/05 12:26:07;;;;;;;5.06;3.43;;;;;;;20.66;40.66;99487.34;;;;-60
2021/04/05 12:29:07;;;;;;;5.25;3.36;;;;;;;20.67;40.20;99495.14;;;;-58
2021/04/05 12:32:07;;;;;;;4.76;3.65;;;;;;;20.68;40.80;99490.91;;;;-51
2021/04/05 12:35:07;;;;;;;3.84;3.38;;;;;;;20.67;40.21;99496.53;;;;-62
2021/04/05 12:38:07;;;;;;;4.30;3.51;;;;;;;20.69;40.61;99492.77;;;;-57
2021/04/05 12:41:07;;;;;;;4.53;3.49;;;;;;;20.70;39.96;99501.30;;;;-49
2021/04/05 12:44:07;;;;;;;4.38;3.16;;;;;;;20.73;40.88;99490.60;;;;-52
2021/04/05 12:47:07;;;;;;;5.31;3.21;;;;;;;20.77;40.88;99497.12;;;;-52
2021/04/05 12:50:07;;;;;;;3.90;2.91;;;;;;;20.80;41.19;99493.59;;;;-52
2021/04/05 12:53:07;;;;;;;4.66;3.10;;;;;;;20.83;41.18;99498.73;;;;-57
2021/04/05 12:56:07;;;;;;;3.42;2.97;;;;;;;20.88;41.28;99502.18;;;;-57
2021/04/05 12:59:07;;;;;;;3.71;3.05;;;;;;;20.91;41.30;99502.53;;;;-58
2021/04/05 13:02:07;;;;;;;4.70;3.03;;;;;;;20.89;40.86;99510.12;;;;-58
2021/04/05 13:05:07;;;;;;;4.13;2.93;;;;;;;20.93;41.08;99518.32;;;;-59
2021/04/05 13:08:07;;;;;;;4.72;2.93;;;;;;;20.94;41.36;99517.33;;;;-57
2021/04/05 13:11:57;;;;;;;4.21;3.03;;;;;;;20.97;41.34;99521.34;;;;-56
2021/04/05 13:15:07;;;;;;;3.76;2.95;;;;;;;20.99;41.33;99527.41;;;;-57
2021/04/05 13:18:07;;;;;;;3.88;2.92;;;;;;;21.00;41.43;99529.22;;;;-57
2021/04/05 13:21:07;;;;;;;3.82;2.82;;;;;;;21.02;41.63;99526.23;;;;-60
2021/04/05 13:24:08;;;;;;;2.92;2.61;;;;;;;21.03;41.67;99532.91;;;;-52
2021/04/05 13:27:08;;;;;;;4.23;2.73;;;;;;;21.05;41.66;99512.34;;;;-56
2021/04/05 13:30:07;;;;;;;7.17;2.69;;;;;;;21.05;41.87;99539.64;;;;-59
2021/04/05 13:33:07;;;;;;;4.43;2.93;;;;;;;21.03;40.89;99546.67;;;;-63
2021/04/05 13:36:07;;;;;;;5.19;2.97;;;;;;;21.04;41.33;99564.64;;;;-60
2021/04/05 13:39:07;;;;;;;5.45;2.85;;;;;;;21.05;41.40;99570.59;;;;-55
2021/04/05 13:42:07;;;;;;;6.66;2.77;;;;;;;21.06;41.71;99568.30;;;;-57
2021/04/05 13:45:07;;;;;;;3.89;2.71;;;;;;;21.08;41.80;99569.96;;;;-62
2021/04/05 13:48:07;;;;;;;3.67;2.71;;;;;;;21.07;41.65;99593.70;;;;-64
2021/04/05 13:51:07;;;;;;;4.99;2.68;;;;;;;21.08;41.87;99623.74;;;;-61
2021/04/05 13:54:07;;;;;;;4.05;2.69;;;;;;;21.07;41.81;99649.09;;;;-62
2021/04/05 13:57:09;;;;;;;3.23;2.80;;;;;;;21.08;41.77;99663.50;;;;-62
2021/04/05 14:00:07;;;;;;;3.21;2.45;;;;;;;21.10;42.01;99659.56;;;;-59
2021/04/05 14:03:07;;;;;;;3.08;2.70;;;;;;;21.11;41.93;99667.47;;;;-61
2021/04/05 14:06:07;;;;;;;3.65;2.70;;;;;;;21.12;41.93;99670.92;;;;-61
2021/04/05 14:09:07;;;;;;;2.61;2.31;;;;;;;21.13;41.91;99684.06;;;;-57
2021/04/05 14:12:07;;;;;;;5.93;2.69;;;;;;;21.10;41.65;99680.58;;;;-61
2021/04/05 14:15:07;;;;;;;3.22;2.41;;;;;;;21.09;41.69;99670.73;;;;-58
2021/04/05 14:18:07;;;;;;;3.59;2.40;;;;;;;21.12;41.88;99675.73;;;;-56
2021/04/05 14:21:07;;;;;;;4.70;2.15;;;;;;;21.15;41.95;99676.87;;;;-51
2021/04/05 14:24:07;;;;;;;2.69;2.35;;;;;;;21.16;42.01;99690.36;;;;-58
2021/04/05 14:27:07;;;;;;;2.73;2.08;;;;;;;21.18;41.92;99691.31;;;;-50
2021/04/05 14:30:07;;;;;;;3.03;2.30;;;;;;;21.20;41.94;99693.88;;;;-53
2021/04/05 14:33:07;;;;;;;2.49;2.28;;;;;;;21.21;41.95;99684.36;;;;-53
2021/04/05 14:36:08;;;;;;;2.59;2.21;;;;;;;21.23;42.07;99697.61;;;;-52
2021/04/05 14:39:07;;;;;;;3.47;2.16;;;;;;;21.24;42.01;99704.44;;;;-63
2021/04/05 14:42:07;;;;;;;2.49;2.10;;;;;;;21.27;42.05;99703.89;;;;-57
2021/04/05 14:45:07;;;;;;;2.63;2.15;;;;;;;21.29;42.06;99706.96;;;;-55
2021/04/05 14:48:07;;;;;;;3.77;2.27;;;;;;;21.31;42.12;99715.34;;;;-52
2021/04/05 14:51:07;;;;;;;2.70;1.90;;;;;;;21.31;42.17;99720.06;;;;-65
2021/04/05 14:54:07;;;;;;;3.19;2.11;;;;;;;21.32;42.15;99716.23;;;;-53
2021/04/05 14:57:07;;;;;;;3.17;1.96;;;;;;;21.33;42.13;99725.11;;;;-51
2021/04/05 15:00:07;;;;;;;2.35;1.95;;;;;;;21.34;42.21;99725.49;;;;-59
2021/04/05 15:03:07;;;;;;;2.03;1.73;;;;;;;21.36;42.35;99730.36;;;;-52
2021/04/05 15:06:07;;;;;;;2.26;1.91;;;;;;;21.38;42.13;99743.61;;;;-51
2021/04/05 15:09:07;;;;;;;2.94;1.90;;;;;;;21.36;41.74;99737.87;;;;-52
2021/04/05 15:12:07;;;;;;;2.16;1.96;;;;;;;21.34;41.68;99759.81;;;;-59
2021/04/05 15:15:07;;;;;;;1.87;1.76;;;;;;;21.33;41.58;99768.47;;;;-52
2021/04/05 15:18:07;;;;;;;3.49;1.85;;;;;;;21.33;41.46;99764.63;;;;-52
2021/04/05 15:21:07;;;;;;;1.84;1.68;;;;;;;21.30;41.42;99770.63;;;;-52
2021/04/05 15:24:07;;;;;;;2.06;1.89;;;;;;;21.29;41.38;99778.11;;;;-52
2021/04/05 15:27:07;;;;;;;1.81;1.63;;;;;;;21.29;41.33;99766.78;;;;-52
2021/04/05 15:30:07;;;;;;;2.32;1.76;;;;;;;21.25;41.37;99765.14;;;;-53
2021/04/05 15:33:07;;;;;;;1.97;1.80;;;;;;;21.25;41.25;99765.22;;;;-52
2021/04/05 15:36:07;;;;;;;1.72;1.62;;;;;;;21.23;41.35;99776.66;;;;-52
2021/04/05 15:39:07;;;;;;;1.73;1.61;;;;;;;21.23;41.30;99772.56;;;;-51
2021/04/05 15:42:07;;;;;;;3.53;1.68;;;;;;;21.16;41.11;99778.34;;;;-50
2021/04/05 15:45:07;;;;;;;1.70;1.60;;;;;;;21.02;40.28;99791.05;;;;-49
2021/04/05 15:48:07;;;;;;;2.35;1.46;;;;;;;20.82;39.48;99788.17;;;;-51
2021/04/05 15:51:07;;;;;;;1.79;1.55;;;;;;;20.73;38.89;99781.74;;;;-51
2021/04/05 15:54:07;;;;;;;1.59;1.40;;;;;;;20.70;38.92;99796.68;;;;-53
2021/04/05 15:57:07;;;;;;;3.90;1.63;;;;;;;20.75;39.48;99785.47;;;;-50
2021/04/05 16:00:07;;;;;;;4.11;1.49;;;;;;;20.79;39.18;99795.69;;;;-54
2021/04/05 16:03:07;;;;;;;3.60;1.41;;;;;;;20.83;39.25;99786.84;;;;-58
2021/04/05 16:06:07;;;;;;;3.05;1.45;;;;;;;20.86;39.45;99793.83;;;;-54
2021/04/05 16:09:09;;;;;;;1.87;1.45;;;;;;;20.88;39.71;99784.54;;;;-53
2021/04/05 16:12:07;;;;;;;2.56;1.45;;;;;;;20.91;39.93;99796.23;;;;-47
2021/04/05 16:15:07;;;;;;;1.91;1.39;;;;;;;20.92;39.94;99796.37;;;;-45
2021/04/05 16:18:07;;;;;;;2.29;1.55;;;;;;;20.94;40.21;99803.70;;;;-47
2021/04/05 16:21:11;;;;;;;1.89;1.27;;;;;;;20.95;40.35;99784.12;;;;-50
2021/04/05 16:24:08;;;;;;;2.05;1.43;;;;;;;20.97;40.35;99795.92;;;;-47
2021/04/05 16:27:07;;;;;;;2.13;1.29;;;;;;;20.97;40.18;99798.52;;;;-53
2021/04/05 16:30:07;;;;;;;1.42;1.32;;;;;;;20.98;40.29;99798.70;;;;-58
2021/04/05 16:33:07;;;;;;;1.56;1.40;;;;;;;21.00;40.20;99799.40;;;;-52
2021/04/05 16:36:07;;;;;;;1.42;1.30;;;;;;;21.01;40.32;99792.45;;;;-49
2021/04/05 16:39:07;;;;;;;2.70;1.40;;;;;;;21.02;40.09;99796.61;;;;-46
2021/04/05 16:42:07;;;;;;;2.53;1.39;;;;;;;21.04;40.13;99811.25;;;;-46
2021/04/05 16:45:07;;;;;;;1.90;1.17;;;;;;;21.05;40.19;99819.47;;;;-46
2021/04/05 16:48:07;;;;;;;1.49;1.29;;;;;;;21.05;40.20;99822.23;;;;-46
2021/04/05 16:51:07;;;;;;;1.96;1.28;;;;;;;21.05;40.25;99825.90;;;;-46
2021/04/05 16:54:07;;;;;;;1.98;1.43;;;;;;;21.06;40.26;99839.16;;;;-46
2021/04/05 16:57:07;;;;;;;1.53;1.34;;;;;;;21.06;40.25;99835.91;;;;-54
2021/04/05 17:00:07;;;;;;;2.42;1.20;;;;;;;21.06;40.37;99837.62;;;;-53